sensor_id;sensor_type;location;lat;lon;timestamp;pressure;altitude;pressure_sealevel;temperature;humidity
78573;BME280;67862;0.000;0.000;2023-07-16T00:01:14;99029.66;;;24.65;54.61
78573;BME280;67862;0.000;0.000;2023-07-16T00:03:40;99038.94;;;24.24;55.34
78573;BME280;67862;0.000;0.000;2023-07-16T00:06:05;99042.09;;;24.18;56.15
78573;BME280;67862;0.000;0.000;2023-07-16T00:08:30;99035.44;;;24.55;55.37
78573;BME280;67862;0.000;0.000;2023-07-16T00:10:56;99036.09;;;24.61;55.26
78573;BME280;67862;0.000;0.000;2023-07-16T00:13:24;99024.47;;;24.55;55.54
78573;BME280;67862;0.000;0.000;2023-07-16T00:15:49;99029.31;;;24.58;55.28
78573;BME280;67862;0.000;0.000;2023-07-16T00:18:15;99028.53;;;24.66;54.82
78573;BME280;67862;0.000;0.000;2023-07-16T00:20:40;99019.19;;;24.67;55.03
78573;BME280;67862;0.000;0.000;2023-07-16T00:23:05;99021.16;;;24.75;54.61
78573;BME280;67862;0.000;0.000;2023-07-16T00:25:31;99023.91;;;24.75;54.70
78573;BME280;67862;0.000;0.000;2023-07-16T00:27:56;99033.53;;;24.64;55.15
78573;BME280;67862;0.000;0.000;2023-07-16T00:30:22;99030.88;;;24.50;55.32
78573;BME280;67862;0.000;0.000;2023-07-16T00:32:47;99040.16;;;24.32;56.11
78573;BME280;67862;0.000;0.000;2023-07-16T00:35:12;99034.25;;;24.47;56.21
78573;BME280;67862;0.000;0.000;2023-07-16T00:37:38;99035.50;;;24.41;56.12
78573;BME280;67862;0.000;0.000;2023-07-16T00:40:03;99031.94;;;24.41;56.25
78573;BME280;67862;0.000;0.000;2023-07-16T00:42:29;99033.28;;;24.43;56.29
78573;BME280;67862;0.000;0.000;2023-07-16T00:44:54;99031.28;;;24.35;56.50
78573;BME280;67862;0.000;0.000;2023-07-16T00:47:20;99033.44;;;24.47;56.31
78573;BME280;67862;0.000;0.000;2023-07-16T00:49:46;99025.16;;;24.38;55.84
78573;BME280;67862;0.000;0.000;2023-07-16T00:52:14;99036.34;;;24.42;56.51
78573;BME280;67862;0.000;0.000;2023-07-16T00:54:41;99032.81;;;24.27;56.38
78573;BME280;67862;0.000;0.000;2023-07-16T00:57:07;99043.66;;;23.88;58.33
78573;BME280;67862;0.000;0.000;2023-07-16T00:59:33;99042.44;;;23.94;58.82
78573;BME280;67862;0.000;0.000;2023-07-16T01:04:44;99028.56;;;23.77;59.13
78573;BME280;67862;0.000;0.000;2023-07-16T01:07:10;99032.13;;;23.77;59.62
78573;BME280;67862;0.000;0.000;2023-07-16T01:09:36;99022.03;;;23.86;59.44
78573;BME280;67862;0.000;0.000;2023-07-16T01:12:06;99030.19;;;24.00;58.32
78573;BME280;67862;0.000;0.000;2023-07-16T01:14:32;99027.06;;;23.70;58.21
78573;BME280;67862;0.000;0.000;2023-07-16T01:16:58;99023.22;;;23.58;59.47
78573;BME280;67862;0.000;0.000;2023-07-16T01:19:27;99015.53;;;23.46;60.50
78573;BME280;67862;0.000;0.000;2023-07-16T01:27:10;99005.91;;;23.85;59.69
78573;BME280;67862;0.000;0.000;2023-07-16T01:29:56;99008.16;;;24.05;58.47
78573;BME280;67862;0.000;0.000;2023-07-16T01:32:23;98999.19;;;24.13;58.21
78573;BME280;67862;0.000;0.000;2023-07-16T01:34:49;98996.13;;;24.15;58.02
78573;BME280;67862;0.000;0.000;2023-07-16T01:37:17;99003.06;;;24.21;57.68
78573;BME280;67862;0.000;0.000;2023-07-16T01:39:42;99008.22;;;24.14;58.07
78573;BME280;67862;0.000;0.000;2023-07-16T01:42:07;99006.41;;;24.09;57.85
78573;BME280;67862;0.000;0.000;2023-07-16T01:44:33;99005.72;;;24.04;58.13
78573;BME280;67862;0.000;0.000;2023-07-16T01:47:23;99002.03;;;24.08;58.21
78573;BME280;67862;0.000;0.000;2023-07-16T01:49:44;99000.81;;;24.14;58.12
78573;BME280;67862;0.000;0.000;2023-07-16T01:57:40;98988.69;;;24.15;57.63
78573;BME280;67862;0.000;0.000;2023-07-16T02:00:06;98995.81;;;24.16;57.36
78573;BME280;67862;0.000;0.000;2023-07-16T02:02:33;98990.09;;;24.04;57.40
78573;BME280;67862;0.000;0.000;2023-07-16T02:04:58;98997.06;;;23.65;59.04
78573;BME280;67862;0.000;0.000;2023-07-16T02:07:23;98996.56;;;23.50;60.28
78573;BME280;67862;0.000;0.000;2023-07-16T02:09:52;98997.41;;;23.36;60.68
78573;BME280;67862;0.000;0.000;2023-07-16T02:12:23;98995.66;;;23.40;61.04
78573;BME280;67862;0.000;0.000;2023-07-16T02:14:48;98997.81;;;23.30;61.45
78573;BME280;67862;0.000;0.000;2023-07-16T02:17:14;99001.09;;;23.18;61.16
78573;BME280;67862;0.000;0.000;2023-07-16T02:19:42;99003.50;;;23.20;62.09
78573;BME280;67862;0.000;0.000;2023-07-16T02:22:09;98997.91;;;23.25;61.68
78573;BME280;67862;0.000;0.000;2023-07-16T02:24:35;98996.50;;;23.13;61.72
78573;BME280;67862;0.000;0.000;2023-07-16T02:27:01;98995.91;;;23.17;61.70
78573;BME280;67862;0.000;0.000;2023-07-16T02:29:26;99007.69;;;22.90;61.60
78573;BME280;67862;0.000;0.000;2023-07-16T02:31:52;99010.41;;;23.03;62.08
78573;BME280;67862;0.000;0.000;2023-07-16T02:34:17;99006.38;;;23.01;61.58
78573;BME280;67862;0.000;0.000;2023-07-16T02:36:43;99001.91;;;22.91;61.97
78573;BME280;67862;0.000;0.000;2023-07-16T02:39:08;98998.34;;;23.04;61.90
78573;BME280;67862;0.000;0.000;2023-07-16T02:41:33;98991.03;;;23.13;61.90
78573;BME280;67862;0.000;0.000;2023-07-16T02:44:04;98991.44;;;23.21;61.32
78573;BME280;67862;0.000;0.000;2023-07-16T02:46:29;99000.06;;;23.14;61.31
78573;BME280;67862;0.000;0.000;2023-07-16T02:48:55;99001.28;;;22.94;62.07
78573;BME280;67862;0.000;0.000;2023-07-16T02:51:20;99000.56;;;22.75;62.54
78573;BME280;67862;0.000;0.000;2023-07-16T02:53:45;98999.31;;;22.67;62.62
78573;BME280;67862;0.000;0.000;2023-07-16T02:56:11;98997.31;;;22.73;62.50
78573;BME280;67862;0.000;0.000;2023-07-16T02:58:36;99003.13;;;22.85;62.11
78573;BME280;67862;0.000;0.000;2023-07-16T03:01:01;98997.56;;;22.90;61.77
78573;BME280;67862;0.000;0.000;2023-07-16T03:03:27;99001.50;;;22.84;62.02
78573;BME280;67862;0.000;0.000;2023-07-16T03:05:52;99003.59;;;22.60;62.66
78573;BME280;67862;0.000;0.000;2023-07-16T03:08:17;99012.94;;;22.59;63.06
78573;BME280;67862;0.000;0.000;2023-07-16T03:10:43;99014.31;;;22.56;62.91
78573;BME280;67862;0.000;0.000;2023-07-16T03:13:08;99006.41;;;22.41;63.34
78573;BME280;67862;0.000;0.000;2023-07-16T03:15:34;99005.50;;;22.45;63.35
78573;BME280;67862;0.000;0.000;2023-07-16T03:18:02;99011.19;;;22.63;63.13
78573;BME280;67862;0.000;0.000;2023-07-16T03:20:36;99008.47;;;22.63;62.76
78573;BME280;67862;0.000;0.000;2023-07-16T03:23:02;98998.31;;;22.77;62.54
78573;BME280;67862;0.000;0.000;2023-07-16T03:25:27;99008.91;;;22.97;61.80
78573;BME280;67862;0.000;0.000;2023-07-16T03:27:52;99002.50;;;23.02;61.23
78573;BME280;67862;0.000;0.000;2023-07-16T03:30:18;99011.31;;;23.12;60.78
78573;BME280;67862;0.000;0.000;2023-07-16T03:32:43;99012.13;;;23.13;60.24
78573;BME280;67862;0.000;0.000;2023-07-16T03:35:08;99015.09;;;22.89;61.04
78573;BME280;67862;0.000;0.000;2023-07-16T03:37:34;99019.34;;;22.35;63.29
78573;BME280;67862;0.000;0.000;2023-07-16T03:40:12;99024.13;;;22.30;63.93
78573;BME280;67862;0.000;0.000;2023-07-16T03:42:37;99022.94;;;22.49;63.27
78573;BME280;67862;0.000;0.000;2023-07-16T03:45:02;99013.88;;;22.35;64.03
78573;BME280;67862;0.000;0.000;2023-07-16T03:47:28;99014.53;;;22.60;63.44
78573;BME280;67862;0.000;0.000;2023-07-16T03:49:53;99027.56;;;22.35;63.75
78573;BME280;67862;0.000;0.000;2023-07-16T03:52:19;99025.56;;;22.41;64.06
78573;BME280;67862;0.000;0.000;2023-07-16T03:54:44;99028.50;;;22.44;64.37
78573;BME280;67862;0.000;0.000;2023-07-16T03:57:09;99024.31;;;22.33;64.07
78573;BME280;67862;0.000;0.000;2023-07-16T03:59:35;99035.50;;;22.64;63.66
78573;BME280;67862;0.000;0.000;2023-07-16T04:02:00;99042.84;;;22.36;64.57
78573;BME280;67862;0.000;0.000;2023-07-16T04:04:25;99043.66;;;22.97;62.62
78573;BME280;67862;0.000;0.000;2023-07-16T04:06:51;99041.28;;;22.63;63.50
78573;BME280;67862;0.000;0.000;2023-07-16T04:09:16;99046.94;;;22.99;62.83
78573;BME280;67862;0.000;0.000;2023-07-16T04:11:41;99053.03;;;22.77;63.20
78573;BME280;67862;0.000;0.000;2023-07-16T04:14:07;99061.44;;;22.67;63.38
78573;BME280;67862;0.000;0.000;2023-07-16T04:16:32;99060.25;;;22.73;63.96
78573;BME280;67862;0.000;0.000;2023-07-16T04:19:01;99056.00;;;22.80;63.61
78573;BME280;67862;0.000;0.000;2023-07-16T04:21:26;99053.03;;;22.77;63.70
78573;BME280;67862;0.000;0.000;2023-07-16T04:23:51;99046.41;;;22.97;63.21
78573;BME280;67862;0.000;0.000;2023-07-16T04:26:17;99050.16;;;23.28;61.76
78573;BME280;67862;0.000;0.000;2023-07-16T04:28:42;99052.88;;;23.42;61.34
78573;BME280;67862;0.000;0.000;2023-07-16T04:31:07;99049.22;;;23.47;60.94
78573;BME280;67862;0.000;0.000;2023-07-16T04:33:33;99044.84;;;23.59;60.90
78573;BME280;67862;0.000;0.000;2023-07-16T04:35:58;99047.78;;;23.63;60.75
78573;BME280;67862;0.000;0.000;2023-07-16T04:38:23;99034.97;;;23.72;60.63
78573;BME280;67862;0.000;0.000;2023-07-16T04:40:49;99034.94;;;23.86;59.58
78573;BME280;67862;0.000;0.000;2023-07-16T04:43:14;99031.09;;;23.87;59.94
78573;BME280;67862;0.000;0.000;2023-07-16T04:45:40;99043.47;;;23.84;59.60
78573;BME280;67862;0.000;0.000;2023-07-16T04:48:05;99038.81;;;23.85;59.02
78573;BME280;67862;0.000;0.000;2023-07-16T04:50:31;99034.22;;;23.94;59.72
78573;BME280;67862;0.000;0.000;2023-07-16T04:52:56;99040.19;;;23.96;59.52
78573;BME280;67862;0.000;0.000;2023-07-16T04:55:22;99035.25;;;23.84;58.40
78573;BME280;67862;0.000;0.000;2023-07-16T04:57:47;99038.31;;;24.05;59.43
78573;BME280;67862;0.000;0.000;2023-07-16T05:00:13;99044.72;;;24.01;58.02
78573;BME280;67862;0.000;0.000;2023-07-16T05:02:38;99045.91;;;24.08;58.12
78573;BME280;67862;0.000;0.000;2023-07-16T05:05:03;99043.31;;;24.25;58.95
78573;BME280;67862;0.000;0.000;2023-07-16T05:07:29;99052.75;;;24.19;57.50
78573;BME280;67862;0.000;0.000;2023-07-16T05:09:54;99059.38;;;24.18;59.54
78573;BME280;67862;0.000;0.000;2023-07-16T05:12:19;99062.91;;;24.33;58.66
78573;BME280;67862;0.000;0.000;2023-07-16T05:14:46;99077.28;;;24.16;59.37
78573;BME280;67862;0.000;0.000;2023-07-16T05:17:12;99069.75;;;24.44;59.86
78573;BME280;67862;0.000;0.000;2023-07-16T05:19:37;99075.69;;;24.01;59.44
78573;BME280;67862;0.000;0.000;2023-07-16T05:22:03;99073.03;;;24.10;59.35
78573;BME280;67862;0.000;0.000;2023-07-16T05:24:28;99074.38;;;24.35;58.83
78573;BME280;67862;0.000;0.000;2023-07-16T05:26:54;99072.50;;;24.44;58.23
78573;BME280;67862;0.000;0.000;2023-07-16T05:29:19;99068.19;;;24.51;58.52
78573;BME280;67862;0.000;0.000;2023-07-16T05:31:45;99073.09;;;24.41;57.75
78573;BME280;67862;0.000;0.000;2023-07-16T05:34:11;99076.22;;;24.48;57.21
78573;BME280;67862;0.000;0.000;2023-07-16T05:36:37;99079.19;;;24.51;56.55
78573;BME280;67862;0.000;0.000;2023-07-16T05:39:02;99074.03;;;24.59;57.26
78573;BME280;67862;0.000;0.000;2023-07-16T05:41:30;99078.16;;;24.47;56.37
78573;BME280;67862;0.000;0.000;2023-07-16T05:43:56;99075.47;;;24.56;56.35
78573;BME280;67862;0.000;0.000;2023-07-16T05:46:21;99078.28;;;24.65;56.13
78573;BME280;67862;0.000;0.000;2023-07-16T05:48:47;99076.72;;;24.72;56.19
78573;BME280;67862;0.000;0.000;2023-07-16T05:51:12;99074.56;;;24.69;55.86
78573;BME280;67862;0.000;0.000;2023-07-16T05:53:37;99082.38;;;24.76;55.84
78573;BME280;67862;0.000;0.000;2023-07-16T05:56:03;99079.66;;;24.84;56.63
78573;BME280;67862;0.000;0.000;2023-07-16T05:58:28;99079.78;;;24.79;56.42
78573;BME280;67862;0.000;0.000;2023-07-16T06:00:54;99081.44;;;24.80;56.37
78573;BME280;67862;0.000;0.000;2023-07-16T06:03:19;99077.09;;;24.88;56.36
78573;BME280;67862;0.000;0.000;2023-07-16T06:05:45;99078.41;;;24.91;56.38
78573;BME280;67862;0.000;0.000;2023-07-16T06:08:10;99077.03;;;25.02;57.25
78573;BME280;67862;0.000;0.000;2023-07-16T06:10:36;99082.53;;;25.02;56.79
78573;BME280;67862;0.000;0.000;2023-07-16T06:13:02;99081.06;;;25.04;55.84
78573;BME280;67862;0.000;0.000;2023-07-16T06:15:28;99082.69;;;25.05;56.59
78573;BME280;67862;0.000;0.000;2023-07-16T06:17:54;99079.16;;;25.14;57.04
78573;BME280;67862;0.000;0.000;2023-07-16T06:20:19;99084.03;;;25.17;55.12
78573;BME280;67862;0.000;0.000;2023-07-16T06:22:44;99079.66;;;25.16;55.18
78573;BME280;67862;0.000;0.000;2023-07-16T06:25:10;99081.75;;;25.19;55.61
78573;BME280;67862;0.000;0.000;2023-07-16T06:27:36;99091.00;;;25.23;54.91
78573;BME280;67862;0.000;0.000;2023-07-16T06:30:01;99089.06;;;25.23;56.32
78573;BME280;67862;0.000;0.000;2023-07-16T06:32:26;99089.56;;;25.25;54.92
78573;BME280;67862;0.000;0.000;2023-07-16T06:34:52;99089.41;;;25.30;56.33
78573;BME280;67862;0.000;0.000;2023-07-16T06:37:17;99093.91;;;25.26;55.28
78573;BME280;67862;0.000;0.000;2023-07-16T06:39:42;99095.25;;;25.37;56.04
78573;BME280;67862;0.000;0.000;2023-07-16T06:42:08;99095.75;;;25.39;56.50
78573;BME280;67862;0.000;0.000;2023-07-16T06:44:33;99097.19;;;25.37;56.42
78573;BME280;67862;0.000;0.000;2023-07-16T06:46:59;99094.44;;;25.37;55.80
78573;BME280;67862;0.000;0.000;2023-07-16T06:49:24;99093.97;;;25.44;55.71
78573;BME280;67862;0.000;0.000;2023-07-16T06:51:50;99092.72;;;25.50;55.09
78573;BME280;67862;0.000;0.000;2023-07-16T06:54:15;99096.25;;;25.50;55.59
78573;BME280;67862;0.000;0.000;2023-07-16T06:56:40;99091.91;;;25.49;55.96
78573;BME280;67862;0.000;0.000;2023-07-16T06:59:06;99097.41;;;25.49;55.45
78573;BME280;67862;0.000;0.000;2023-07-16T07:04:18;99095.63;;;25.62;55.82
78573;BME280;67862;0.000;0.000;2023-07-16T07:06:44;99094.66;;;25.66;55.93
78573;BME280;67862;0.000;0.000;2023-07-16T07:09:11;99099.72;;;25.73;55.75
78573;BME280;67862;0.000;0.000;2023-07-16T07:11:39;99102.09;;;25.66;56.05
78573;BME280;67862;0.000;0.000;2023-07-16T07:14:04;99102.41;;;25.64;56.34
78573;BME280;67862;0.000;0.000;2023-07-16T07:16:30;99090.28;;;25.65;55.85
78573;BME280;67862;0.000;0.000;2023-07-16T07:18:56;99094.38;;;25.68;55.14
78573;BME280;67862;0.000;0.000;2023-07-16T07:21:21;99088.88;;;25.68;55.20
78573;BME280;67862;0.000;0.000;2023-07-16T07:23:47;99082.84;;;25.66;55.72
78573;BME280;67862;0.000;0.000;2023-07-16T07:26:20;99083.19;;;25.64;56.11
78573;BME280;67862;0.000;0.000;2023-07-16T07:28:45;99080.09;;;25.66;55.90
78573;BME280;67862;0.000;0.000;2023-07-16T07:31:10;99090.63;;;25.64;55.96
78573;BME280;67862;0.000;0.000;2023-07-16T07:33:36;99089.47;;;25.65;56.35
78573;BME280;67862;0.000;0.000;2023-07-16T07:36:01;99086.41;;;25.66;56.39
78573;BME280;67862;0.000;0.000;2023-07-16T07:38:30;99089.16;;;25.66;56.66
78573;BME280;67862;0.000;0.000;2023-07-16T07:40:55;99081.72;;;25.67;56.71
78573;BME280;67862;0.000;0.000;2023-07-16T07:43:21;99085.78;;;25.69;56.96
78573;BME280;67862;0.000;0.000;2023-07-16T07:45:49;99087.09;;;25.72;56.91
78573;BME280;67862;0.000;0.000;2023-07-16T07:48:14;99088.06;;;25.76;57.20
78573;BME280;67862;0.000;0.000;2023-07-16T07:50:43;99085.97;;;25.73;57.15
78573;BME280;67862;0.000;0.000;2023-07-16T07:53:18;99093.22;;;25.69;57.36
78573;BME280;67862;0.000;0.000;2023-07-16T07:55:46;99083.88;;;25.70;57.23
78573;BME280;67862;0.000;0.000;2023-07-16T07:58:14;99091.00;;;25.71;57.57
78573;BME280;67862;0.000;0.000;2023-07-16T08:00:40;99092.94;;;25.71;57.60
78573;BME280;67862;0.000;0.000;2023-07-16T08:03:05;99092.94;;;25.71;57.66
78573;BME280;67862;0.000;0.000;2023-07-16T08:05:31;99091.00;;;25.71;57.76
78573;BME280;67862;0.000;0.000;2023-07-16T08:10:56;99084.34;;;25.72;57.72
78573;BME280;67862;0.000;0.000;2023-07-16T08:13:21;99080.47;;;25.73;58.00
78573;BME280;67862;0.000;0.000;2023-07-16T08:15:47;99078.06;;;25.72;58.05
78573;BME280;67862;0.000;0.000;2023-07-16T08:18:15;99077.25;;;25.71;57.91
78573;BME280;67862;0.000;0.000;2023-07-16T08:20:56;99080.81;;;25.72;57.91
78573;BME280;67862;0.000;0.000;2023-07-16T08:23:33;99082.75;;;25.71;58.34
78573;BME280;67862;0.000;0.000;2023-07-16T08:26:11;99088.25;;;25.71;58.35
78573;BME280;67862;0.000;0.000;2023-07-16T08:28:48;99081.13;;;25.70;58.22
78573;BME280;67862;0.000;0.000;2023-07-16T08:34:26;99081.94;;;25.71;58.53
78573;BME280;67862;0.000;0.000;2023-07-16T08:36:54;99085.50;;;25.71;58.54
78573;BME280;67862;0.000;0.000;2023-07-16T08:39:20;99080.00;;;25.71;58.50
78573;BME280;67862;0.000;0.000;2023-07-16T08:41:48;99082.75;;;25.71;58.62
78573;BME280;67862;0.000;0.000;2023-07-16T08:44:14;99080.81;;;25.72;58.63
78573;BME280;67862;0.000;0.000;2023-07-16T08:46:39;99070.94;;;25.71;58.79
78573;BME280;67862;0.000;0.000;2023-07-16T08:49:07;99063.50;;;25.71;58.68
78573;BME280;67862;0.000;0.000;2023-07-16T08:51:32;99076.09;;;25.72;59.06
78573;BME280;67862;0.000;0.000;2023-07-16T08:53:59;99076.91;;;25.73;59.08
78573;BME280;67862;0.000;0.000;2023-07-16T08:56:28;99077.25;;;25.71;59.17
78573;BME280;67862;0.000;0.000;2023-07-16T08:58:54;99082.75;;;25.71;59.09
78573;BME280;67862;0.000;0.000;2023-07-16T09:01:23;99082.75;;;25.71;59.02
78573;BME280;67862;0.000;0.000;2023-07-16T09:03:51;99080.81;;;25.72;58.96
78573;BME280;67862;0.000;0.000;2023-07-16T09:06:17;99078.06;;;25.72;59.22
78573;BME280;67862;0.000;0.000;2023-07-16T09:08:42;99078.84;;;25.72;59.09
78573;BME280;67862;0.000;0.000;2023-07-16T09:11:11;99084.34;;;25.72;59.34
78573;BME280;67862;0.000;0.000;2023-07-16T09:13:43;99073.69;;;25.71;59.39
78573;BME280;67862;0.000;0.000;2023-07-16T09:16:09;99085.50;;;25.71;59.34
78573;BME280;67862;0.000;0.000;2023-07-16T09:18:39;99080.81;;;25.72;59.17
78573;BME280;67862;0.000;0.000;2023-07-16T09:21:05;99078.84;;;25.72;59.19
78573;BME280;67862;0.000;0.000;2023-07-16T09:23:33;99081.59;;;25.72;59.28
78573;BME280;67862;0.000;0.000;2023-07-16T09:26:02;99083.56;;;25.72;59.27
78573;BME280;67862;0.000;0.000;2023-07-16T09:28:31;99071.75;;;25.71;59.28
78573;BME280;67862;0.000;0.000;2023-07-16T09:31:06;99077.25;;;25.71;59.43
78573;BME280;67862;0.000;0.000;2023-07-16T09:33:32;99077.25;;;25.71;59.43
78573;BME280;67862;0.000;0.000;2023-07-16T09:35:58;99074.50;;;25.71;59.48
78573;BME280;67862;0.000;0.000;2023-07-16T09:38:23;99075.63;;;25.70;59.31
78573;BME280;67862;0.000;0.000;2023-07-16T09:40:50;99074.50;;;25.71;59.42
78573;BME280;67862;0.000;0.000;2023-07-16T09:43:16;99082.75;;;25.71;59.34
78573;BME280;67862;0.000;0.000;2023-07-16T09:45:42;99080.00;;;25.71;59.39
78573;BME280;67862;0.000;0.000;2023-07-16T09:48:08;99073.69;;;25.71;59.44
78573;BME280;67862;0.000;0.000;2023-07-16T09:50:34;99077.25;;;25.71;59.64
78573;BME280;67862;0.000;0.000;2023-07-16T09:53:04;99077.25;;;25.71;59.49
78573;BME280;67862;0.000;0.000;2023-07-16T09:55:33;99082.75;;;25.71;59.50
78573;BME280;67862;0.000;0.000;2023-07-16T09:57:59;99082.75;;;25.71;59.68
78573;BME280;67862;0.000;0.000;2023-07-16T10:00:25;99071.75;;;25.71;59.61
78573;BME280;67862;0.000;0.000;2023-07-16T10:02:52;99072.56;;;25.72;59.55
78573;BME280;67862;0.000;0.000;2023-07-16T10:05:18;99076.09;;;25.72;59.67
78573;BME280;67862;0.000;0.000;2023-07-16T10:07:51;99072.56;;;25.72;59.40
78573;BME280;67862;0.000;0.000;2023-07-16T10:10:16;99078.06;;;25.72;59.59
78573;BME280;67862;0.000;0.000;2023-07-16T10:12:43;99067.88;;;25.72;59.55
78573;BME280;67862;0.000;0.000;2023-07-16T10:15:24;99064.31;;;25.72;59.48
78573;BME280;67862;0.000;0.000;2023-07-16T10:17:54;99069.00;;;25.71;59.66
78573;BME280;67862;0.000;0.000;2023-07-16T10:20:43;99069.00;;;25.71;59.89
78573;BME280;67862;0.000;0.000;2023-07-16T10:23:12;99061.56;;;25.72;59.59
78573;BME280;67862;0.000;0.000;2023-07-16T10:25:38;99067.88;;;25.72;59.79
78573;BME280;67862;0.000;0.000;2023-07-16T10:28:04;99063.16;;;25.73;59.68
78573;BME280;67862;0.000;0.000;2023-07-16T10:30:30;99063.16;;;25.73;59.66
78573;BME280;67862;0.000;0.000;2023-07-16T10:32:55;99056.88;;;25.72;59.64
78573;BME280;67862;0.000;0.000;2023-07-16T10:35:20;99057.66;;;25.73;59.71
78573;BME280;67862;0.000;0.000;2023-07-16T10:37:49;99057.66;;;25.73;59.58
78573;BME280;67862;0.000;0.000;2023-07-16T10:40:14;99054.13;;;25.72;59.82
78573;BME280;67862;0.000;0.000;2023-07-16T10:42:40;99056.88;;;25.72;59.87
78573;BME280;67862;0.000;0.000;2023-07-16T10:45:07;99060.41;;;25.73;59.58
78573;BME280;67862;0.000;0.000;2023-07-16T10:47:33;99053.31;;;25.72;59.71
78573;BME280;67862;0.000;0.000;2023-07-16T10:49:59;99056.88;;;25.72;59.82
78573;BME280;67862;0.000;0.000;2023-07-16T10:52:25;99056.06;;;25.72;59.67
78573;BME280;67862;0.000;0.000;2023-07-16T10:54:51;99051.38;;;25.72;59.49
78573;BME280;67862;0.000;0.000;2023-07-16T10:57:24;99051.38;;;25.72;59.77
78573;BME280;67862;0.000;0.000;2023-07-16T10:59:53;99057.66;;;25.73;59.55
78573;BME280;67862;0.000;0.000;2023-07-16T11:02:20;99053.78;;;25.74;59.69
78573;BME280;67862;0.000;0.000;2023-07-16T11:04:46;99052.97;;;25.73;59.56
78573;BME280;67862;0.000;0.000;2023-07-16T11:07:14;99048.28;;;25.74;59.46
78573;BME280;67862;0.000;0.000;2023-07-16T11:09:40;99043.59;;;25.74;59.54
78573;BME280;67862;0.000;0.000;2023-07-16T11:12:10;99055.41;;;25.75;59.56
78573;BME280;67862;0.000;0.000;2023-07-16T11:14:36;99047.16;;;25.75;59.56
78573;BME280;67862;0.000;0.000;2023-07-16T11:17:05;99049.91;;;25.75;59.71
78573;BME280;67862;0.000;0.000;2023-07-16T11:19:35;99048.28;;;25.74;59.98
78573;BME280;67862;0.000;0.000;2023-07-16T11:22:04;99044.41;;;25.75;59.76
78573;BME280;67862;0.000;0.000;2023-07-16T11:24:43;99045.22;;;25.75;59.53
78573;BME280;67862;0.000;0.000;2023-07-16T11:27:13;99051.84;;;25.74;59.78
78573;BME280;67862;0.000;0.000;2023-07-16T11:29:39;99040.84;;;25.74;59.62
78573;BME280;67862;0.000;0.000;2023-07-16T11:32:04;99043.59;;;25.74;59.99
78573;BME280;67862;0.000;0.000;2023-07-16T11:34:33;99034.22;;;25.75;59.64
78573;BME280;67862;0.000;0.000;2023-07-16T11:37:11;99040.84;;;25.74;59.78
78573;BME280;67862;0.000;0.000;2023-07-16T11:39:39;99027.09;;;25.74;59.50
78573;BME280;67862;0.000;0.000;2023-07-16T11:42:07;99025.97;;;25.75;59.89
78573;BME280;67862;0.000;0.000;2023-07-16T11:44:33;99025.97;;;25.75;59.77
78573;BME280;67862;0.000;0.000;2023-07-16T11:47:05;99028.72;;;25.75;59.62
78573;BME280;67862;0.000;0.000;2023-07-16T11:49:30;99028.72;;;25.75;59.52
78573;BME280;67862;0.000;0.000;2023-07-16T11:54:57;99030.31;;;25.76;59.75
78573;BME280;67862;0.000;0.000;2023-07-16T11:57:29;99020.97;;;25.77;59.81
78573;BME280;67862;0.000;0.000;2023-07-16T11:59:55;99030.31;;;25.76;59.49
78573;BME280;67862;0.000;0.000;2023-07-16T12:02:20;99025.63;;;25.77;59.84
78573;BME280;67862;0.000;0.000;2023-07-16T12:04:46;99026.47;;;25.77;59.53
78573;BME280;67862;0.000;0.000;2023-07-16T12:07:11;99029.22;;;25.77;59.82
78573;BME280;67862;0.000;0.000;2023-07-16T12:09:37;99024.53;;;25.78;59.61
78573;BME280;67862;0.000;0.000;2023-07-16T12:12:02;99021.78;;;25.78;59.73
78573;BME280;67862;0.000;0.000;2023-07-16T12:14:28;99027.28;;;25.78;59.49
78573;BME280;67862;0.000;0.000;2023-07-16T12:16:56;99028.09;;;25.78;59.45
78573;BME280;67862;0.000;0.000;2023-07-16T12:19:24;99019.84;;;25.78;59.70
78573;BME280;67862;0.000;0.000;2023-07-16T12:21:50;99020.66;;;25.79;59.51
78573;BME280;67862;0.000;0.000;2023-07-16T12:24:15;99017.91;;;25.79;59.85
78573;BME280;67862;0.000;0.000;2023-07-16T12:26:44;99018.69;;;25.79;59.45
78573;BME280;67862;0.000;0.000;2023-07-16T12:29:09;99028.09;;;25.78;59.72
78573;BME280;67862;0.000;0.000;2023-07-16T12:31:36;99024.19;;;25.79;59.50
78573;BME280;67862;0.000;0.000;2023-07-16T12:34:05;99015.94;;;25.79;59.54
78573;BME280;67862;0.000;0.000;2023-07-16T12:36:30;99018.69;;;25.79;59.38
78573;BME280;67862;0.000;0.000;2023-07-16T12:38:56;99019.50;;;25.80;59.40
78573;BME280;67862;0.000;0.000;2023-07-16T12:41:21;99018.38;;;25.81;59.48
78573;BME280;67862;0.000;0.000;2023-07-16T12:43:46;99018.69;;;25.79;59.56
78573;BME280;67862;0.000;0.000;2023-07-16T12:46:12;99020.31;;;25.80;59.45
78573;BME280;67862;0.000;0.000;2023-07-16T12:48:41;99015.63;;;25.81;59.39
78573;BME280;67862;0.000;0.000;2023-07-16T12:51:06;99020.31;;;25.80;59.47
78573;BME280;67862;0.000;0.000;2023-07-16T12:53:34;99017.56;;;25.80;59.64
78573;BME280;67862;0.000;0.000;2023-07-16T12:56:03;99009.31;;;25.80;59.67
78573;BME280;67862;0.000;0.000;2023-07-16T12:58:31;99027.44;;;25.81;59.61
78573;BME280;67862;0.000;0.000;2023-07-16T13:07:06;99020.00;;;25.82;59.50
78573;BME280;67862;0.000;0.000;2023-07-16T13:09:33;99023.53;;;25.82;59.66
78573;BME280;67862;0.000;0.000;2023-07-16T13:12:01;99018.03;;;25.82;59.44
78573;BME280;67862;0.000;0.000;2023-07-16T13:14:30;99013.50;;;25.86;59.43
78573;BME280;67862;0.000;0.000;2023-07-16T13:16:58;99018.38;;;25.89;59.32
78573;BME280;67862;0.000;0.000;2023-07-16T13:22:32;99023.22;;;25.92;59.35
78573;BME280;67862;0.000;0.000;2023-07-16T13:24:57;99014.63;;;25.94;59.57
78573;BME280;67862;0.000;0.000;2023-07-16T13:27:23;99013.84;;;25.93;59.39
78573;BME280;67862;0.000;0.000;2023-07-16T13:29:49;99016.25;;;25.95;59.56
78573;BME280;67862;0.000;0.000;2023-07-16T13:32:14;99022.56;;;25.95;59.39
78573;BME280;67862;0.000;0.000;2023-07-16T13:34:58;99021.47;;;25.96;59.64
78573;BME280;67862;0.000;0.000;2023-07-16T13:37:23;99015.94;;;25.96;59.55
78573;BME280;67862;0.000;0.000;2023-07-16T13:39:49;99019.50;;;25.97;59.37
78573;BME280;67862;0.000;0.000;2023-07-16T13:43:00;99017.25;;;25.99;59.67